Time;durP1;ratioP1;P1;durP2;ratioP2;P2;SDS_P1;SDS_P2;PMS_P1;PMS_P2;Temp;Humidity;BMP_temperature;BMP_pressure;BME280_temperature;BME280_humidity;BME280_pressure;Samples;Min_cycle;Max_cycle;Signal;HPM_P1;HPM_P2
2023/10/31 00:02:02;;;;;;;0.87;0.87;;;23.20;66.60;;;;;;5008577;28;20454;-65
2023/10/31 00:04:31;;;;;;;0.70;0.70;;;23.20;66.50;;;;;;4997722;28;20512;-65
2023/10/31 00:06:59;;;;;;;0.67;0.67;;;23.20;66.50;;;;;;5003999;28;20946;-64
2023/10/31 00:09:27;;;;;;;0.93;0.70;;;23.20;66.60;;;;;;5007556;28;20526;-65
2023/10/31 00:11:55;;;;;;;1.03;0.93;;;23.20;66.60;;;;;;5009717;28;20996;-65
2023/10/31 00:14:25;;;;;;;0.80;0.80;;;23.20;66.60;;;;;;5003617;28;20494;-65
2023/10/31 00:16:58;;;;;;;0.80;0.80;;;23.20;66.50;;;;;;5004836;28;20482;-65
2023/10/31 00:19:27;;;;;;;0.83;0.83;;;23.20;66.40;;;;;;5007461;28;20553;-67
2023/10/31 00:21:55;;;;;;;0.90;0.90;;;23.10;66.40;;;;;;5005968;28;20520;-65
2023/10/31 00:24:24;;;;;;;0.80;0.80;;;23.20;66.60;;;;;;5010471;28;20529;-64
2023/10/31 00:26:52;;;;;;;0.60;0.60;;;23.20;66.60;;;;;;5009683;28;20993;-66
2023/10/31 00:29:20;;;;;;;1.00;1.00;;;23.10;66.60;;;;;;5010382;28;20950;-65
2023/10/31 00:31:50;;;;;;;0.80;0.80;;;23.10;66.40;;;;;;5009612;28;20503;-65
2023/10/31 00:34:18;;;;;;;0.80;0.80;;;23.10;66.50;;;;;;5014111;28;20449;-65
2023/10/31 00:36:46;;;;;;;1.10;0.90;;;23.10;66.50;;;;;;5009057;28;20460;-67
2023/10/31 00:39:15;;;;;;;0.80;0.80;;;23.10;66.50;;;;;;5011788;28;20469;-65
2023/10/31 00:41:46;;;;;;;0.80;0.80;;;23.10;66.50;;;;;;5013989;28;20448;-65
2023/10/31 00:44:14;;;;;;;0.80;0.80;;;23.10;66.50;;;;;;5016633;28;20458;-65
2023/10/31 00:46:43;;;;;;;1.03;0.93;;;23.10;66.50;;;;;;5008569;28;20472;-65
2023/10/31 00:49:13;;;;;;;0.70;0.70;;;23.10;66.50;;;;;;5011466;28;20466;-65
2023/10/31 00:51:41;;;;;;;1.00;1.00;;;23.10;66.80;;;;;;5013326;28;20444;-65
2023/10/31 00:54:09;;;;;;;0.60;0.57;;;23.10;66.70;;;;;;5012449;28;20479;-65
2023/10/31 00:56:38;;;;;;;0.87;0.87;;;23.10;66.60;;;;;;5013094;28;20460;-65
2023/10/31 00:59:06;;;;;;;0.70;0.70;;;23.10;66.90;;;;;;5010381;28;20501;-64
2023/10/31 01:01:34;;;;;;;0.80;0.80;;;23.10;66.60;;;;;;5011910;28;20461;-65
2023/10/31 01:04:03;;;;;;;0.80;0.80;;;23.10;66.70;;;;;;5014318;28;20452;-65
2023/10/31 01:06:33;;;;;;;1.20;1.20;;;23.00;66.60;;;;;;5011117;28;20834;-65
2023/10/31 01:09:01;;;;;;;0.70;0.70;;;23.10;66.70;;;;;;5012015;28;20492;-66
2023/10/31 01:11:30;;;;;;;0.87;0.87;;;23.00;66.70;;;;;;5006985;28;20451;-64
2023/10/31 01:13:59;;;;;;;0.90;0.90;;;23.00;66.70;;;;;;5014786;28;20445;-65
2023/10/31 01:16:27;;;;;;;0.90;0.90;;;23.00;66.90;;;;;;5003507;28;20480;-64
2023/10/31 01:18:55;;;;;;;1.10;0.93;;;23.00;66.80;;;;;;5012598;28;20784;-65
2023/10/31 01:21:23;;;;;;;0.70;0.70;;;23.00;67.00;;;;;;5010577;28;20457;-64
2023/10/31 01:23:53;;;;;;;0.80;0.80;;;23.00;66.90;;;;;;5012363;28;20987;-66
2023/10/31 01:26:21;;;;;;;0.90;0.90;;;23.00;66.80;;;;;;5010722;28;20476;-65
2023/10/31 01:28:50;;;;;;;0.60;0.60;;;23.00;67.00;;;;;;5008455;28;20466;-65
2023/10/31 01:31:18;;;;;;;0.77;0.77;;;23.00;66.80;;;;;;5008796;28;20560;-66
2023/10/31 01:33:47;;;;;;;0.60;0.60;;;23.00;66.90;;;;;;5019377;28;20451;-65
2023/10/31 01:36:15;;;;;;;0.70;0.70;;;23.00;66.90;;;;;;5029190;28;20470;-67
2023/10/31 01:38:43;;;;;;;0.70;0.70;;;22.90;66.80;;;;;;5012914;28;20465;-64
2023/10/31 01:41:14;;;;;;;0.63;0.63;;;22.90;66.80;;;;;;5012988;28;20495;-65
2023/10/31 01:43:43;;;;;;;0.73;0.70;;;22.90;66.80;;;;;;5021368;28;20458;-64
2023/10/31 01:46:12;;;;;;;0.60;0.60;;;22.90;66.80;;;;;;4997420;28;20476;-64
2023/10/31 01:48:40;;;;;;;0.67;0.67;;;22.90;66.90;;;;;;5011812;28;20686;-65
2023/10/31 01:51:10;;;;;;;0.70;0.70;;;22.90;66.80;;;;;;5013292;28;20439;-65
2023/10/31 01:53:39;;;;;;;0.63;0.63;;;22.90;66.90;;;;;;5018089;28;20444;-65
2023/10/31 01:56:08;;;;;;;0.83;0.83;;;22.90;66.70;;;;;;5015673;28;20945;-64
2023/10/31 01:58:39;;;;;;;0.73;0.73;;;22.90;66.80;;;;;;5010233;28;20990;-66
2023/10/31 02:01:07;;;;;;;0.93;0.93;;;22.90;66.80;;;;;;5008610;28;20465;-65
2023/10/31 02:03:35;;;;;;;1.10;1.10;;;22.90;66.80;;;;;;5016489;28;20484;-64
2023/10/31 02:06:04;;;;;;;1.10;1.00;;;22.90;66.80;;;;;;5013212;28;20473;-65
2023/10/31 02:08:33;;;;;;;0.93;0.93;;;22.90;66.90;;;;;;5012620;28;20551;-65
2023/10/31 02:11:01;;;;;;;1.07;0.97;;;22.90;66.90;;;;;;5012751;28;20818;-64
2023/10/31 02:13:29;;;;;;;0.70;0.70;;;22.90;67.00;;;;;;5014943;28;20448;-64
2023/10/31 02:15:59;;;;;;;0.90;0.83;;;22.90;66.90;;;;;;5015807;28;20460;-66
2023/10/31 02:18:27;;;;;;;0.67;0.67;;;22.90;66.90;;;;;;5005662;28;20523;-65
2023/10/31 02:20:55;;;;;;;0.80;0.80;;;22.90;67.10;;;;;;4992792;28;20438;-66
2023/10/31 02:23:25;;;;;;;0.70;0.70;;;22.90;67.00;;;;;;4998095;28;20445;-65
2023/10/31 02:25:53;;;;;;;0.67;0.67;;;22.90;67.10;;;;;;5031079;28;20436;-65
2023/10/31 02:28:22;;;;;;;0.77;0.77;;;22.90;67.10;;;;;;5032264;28;21289;-66
2023/10/31 02:30:50;;;;;;;0.70;0.70;;;22.90;66.90;;;;;;5032121;28;20436;-66
2023/10/31 02:33:18;;;;;;;0.60;0.60;;;22.90;66.80;;;;;;5029997;28;20510;-66
2023/10/31 02:35:46;;;;;;;0.83;0.80;;;22.90;67.10;;;;;;5010168;28;20457;-65
2023/10/31 02:38:15;;;;;;;0.67;0.60;;;22.80;67.00;;;;;;5011962;28;20452;-64
2023/10/31 02:40:44;;;;;;;0.67;0.67;;;22.90;67.10;;;;;;5012490;28;20436;-65
2023/10/31 02:43:12;;;;;;;0.70;0.70;;;22.80;67.00;;;;;;5012779;28;20437;-65
2023/10/31 02:45:41;;;;;;;0.80;0.80;;;22.80;67.00;;;;;;5031711;28;20441;-65
2023/10/31 02:48:09;;;;;;;0.50;0.50;;;22.90;67.00;;;;;;5030298;28;20489;-64
2023/10/31 02:50:37;;;;;;;0.40;0.40;;;22.80;67.10;;;;;;5029384;28;20443;-65
2023/10/31 02:53:05;;;;;;;0.93;0.73;;;22.90;67.00;;;;;;5005569;28;20552;-65
2023/10/31 02:55:34;;;;;;;0.70;0.70;;;22.80;66.90;;;;;;4997863;28;20443;-65
2023/10/31 02:58:03;;;;;;;0.60;0.60;;;22.80;67.00;;;;;;5031442;28;20433;-66
2023/10/31 03:00:31;;;;;;;0.63;0.63;;;22.80;67.10;;;;;;5031942;28;20428;-65
2023/10/31 03:02:59;;;;;;;0.77;0.77;;;22.80;67.00;;;;;;5009192;28;20523;-65
2023/10/31 03:05:28;;;;;;;1.47;0.83;;;22.80;67.00;;;;;;5012778;28;20441;-65
2023/10/31 03:07:56;;;;;;;0.50;0.50;;;22.80;67.00;;;;;;5011700;28;20475;-66
2023/10/31 03:10:24;;;;;;;0.50;0.50;;;22.80;67.00;;;;;;5004211;28;20509;-65
2023/10/31 03:12:52;;;;;;;0.70;0.70;;;22.80;67.00;;;;;;4992249;28;20480;-65
2023/10/31 03:15:22;;;;;;;0.90;0.90;;;22.80;67.10;;;;;;5026034;28;20455;-66
2023/10/31 03:17:50;;;;;;;0.70;0.70;;;22.80;67.00;;;;;;5030330;28;20457;-65
2023/10/31 03:20:18;;;;;;;0.80;0.80;;;22.80;67.00;;;;;;5014347;28;20457;-66
2023/10/31 03:22:47;;;;;;;0.50;0.50;;;22.80;67.00;;;;;;5011210;28;20464;-66
2023/10/31 03:25:15;;;;;;;0.80;0.80;;;22.80;67.00;;;;;;5018856;28;20456;-65
2023/10/31 03:27:43;;;;;;;0.80;0.80;;;22.80;66.90;;;;;;5004284;28;20976;-65
2023/10/31 03:30:12;;;;;;;0.93;0.93;;;22.80;67.00;;;;;;5011360;28;20980;-64
2023/10/31 03:32:43;;;;;;;0.80;0.80;;;22.80;67.00;;;;;;5010523;28;20489;-66
2023/10/31 03:35:11;;;;;;;0.60;0.60;;;22.80;67.00;;;;;;5026145;28;20940;-65
2023/10/31 03:37:41;;;;;;;0.50;0.50;;;22.80;67.00;;;;;;5009643;28;20958;-65
2023/10/31 03:40:10;;;;;;;0.60;0.60;;;22.80;67.00;;;;;;5010311;28;20442;-65
2023/10/31 03:42:39;;;;;;;0.70;0.70;;;22.80;67.00;;;;;;5011803;28;20534;-65
2023/10/31 03:45:09;;;;;;;0.80;0.80;;;22.80;67.00;;;;;;5009948;28;20552;-64
2023/10/31 03:47:37;;;;;;;0.60;0.60;;;22.80;66.90;;;;;;5010509;28;20993;-64
2023/10/31 03:50:08;;;;;;;0.70;0.70;;;22.80;67.00;;;;;;5011120;28;20500;-64
2023/10/31 03:52:36;;;;;;;0.60;0.60;;;22.80;67.00;;;;;;5010845;28;20445;-64
2023/10/31 03:55:05;;;;;;;0.80;0.80;;;22.80;67.00;;;;;;5026236;28;20458;-65
2023/10/31 03:57:34;;;;;;;0.70;0.70;;;22.80;67.00;;;;;;5019845;28;20462;-65
2023/10/31 04:00:04;;;;;;;0.70;0.70;;;22.80;67.00;;;;;;5006131;28;20492;-65
2023/10/31 04:02:41;;;;;;;0.60;0.60;;;22.80;67.00;;;;;;5006253;28;20476;-65
2023/10/31 04:05:11;;;;;;;0.70;0.70;;;22.70;67.00;;;;;;5024640;28;20545;-65
2023/10/31 04:07:39;;;;;;;0.80;0.80;;;22.70;67.00;;;;;;5010892;28;20576;-66
2023/10/31 04:10:08;;;;;;;0.77;0.77;;;22.70;67.00;;;;;;5009838;28;20452;-64
2023/10/31 04:12:36;;;;;;;0.87;0.87;;;22.70;67.00;;;;;;5010625;28;20468;-64
2023/10/31 04:15:05;;;;;;;0.60;0.60;;;22.70;67.00;;;;;;5025820;28;20932;-64
2023/10/31 04:17:34;;;;;;;0.50;0.50;;;22.70;67.10;;;;;;5023871;28;20868;-65
2023/10/31 04:20:03;;;;;;;0.60;0.60;;;22.70;67.10;;;;;;5008969;28;21020;-66
2023/10/31 04:22:32;;;;;;;0.57;0.57;;;22.70;67.10;;;;;;5010885;28;20449;-65
2023/10/31 04:25:00;;;;;;;0.70;0.60;;;22.70;67.10;;;;;;5001870;28;20457;-65
2023/10/31 04:27:29;;;;;;;0.50;0.50;;;22.70;67.00;;;;;;4990812;28;20478;-66
2023/10/31 04:29:58;;;;;;;0.47;0.47;;;22.70;67.00;;;;;;4991405;28;20442;-65
2023/10/31 04:32:26;;;;;;;1.47;1.43;;;22.70;67.00;;;;;;4990094;28;20485;-65
2023/10/31 04:34:54;;;;;;;0.70;0.70;;;22.70;67.00;;;;;;5009545;28;20456;-65
2023/10/31 04:37:23;;;;;;;0.67;0.67;;;22.70;67.00;;;;;;5008429;28;20449;-65
2023/10/31 04:39:52;;;;;;;0.60;0.50;;;22.70;66.90;;;;;;4990932;28;20426;-64
2023/10/31 04:42:20;;;;;;;0.50;0.50;;;22.70;67.00;;;;;;4992908;28;21260;-65
2023/10/31 04:44:49;;;;;;;0.63;0.63;;;22.70;67.00;;;;;;5017586;28;20445;-64
2023/10/31 04:47:17;;;;;;;0.60;0.60;;;22.70;66.90;;;;;;5009674;28;20527;-65
2023/10/31 04:49:45;;;;;;;0.60;0.60;;;22.70;66.90;;;;;;5028431;28;20450;-64
2023/10/31 04:52:13;;;;;;;0.80;0.80;;;22.70;66.90;;;;;;5022237;28;20460;-65
2023/10/31 04:54:41;;;;;;;0.77;0.77;;;22.60;66.90;;;;;;5007322;28;20515;-65
2023/10/31 04:57:11;;;;;;;0.70;0.70;;;22.60;66.80;;;;;;5013014;28;20460;-65
2023/10/31 04:59:39;;;;;;;0.90;0.90;;;22.60;67.10;;;;;;5010434;28;20433;-65
2023/10/31 05:02:07;;;;;;;0.60;0.60;;;22.60;67.00;;;;;;5008303;28;20538;-64
2023/10/31 05:04:39;;;;;;;1.17;1.17;;;22.60;67.10;;;;;;5019326;28;20513;-65
2023/10/31 05:07:08;;;;;;;0.77;0.77;;;22.70;67.10;;;;;;5029872;28;20440;-64
2023/10/31 05:09:37;;;;;;;0.70;0.70;;;22.70;67.20;;;;;;5029895;28;20473;-64
2023/10/31 05:12:05;;;;;;;0.63;0.60;;;22.70;67.20;;;;;;5012922;28;20456;-64
2023/10/31 05:14:35;;;;;;;1.03;0.63;;;22.80;67.10;;;;;;5004920;28;20794;-65
2023/10/31 05:17:03;;;;;;;0.70;0.70;;;22.80;67.20;;;;;;5006731;28;20457;-65
2023/10/31 05:19:31;;;;;;;0.83;0.83;;;22.90;67.10;;;;;;5010818;28;20482;-64
2023/10/31 05:21:59;;;;;;;0.40;0.40;;;22.90;67.00;;;;;;5012217;28;20480;-65
2023/10/31 05:24:28;;;;;;;1.33;0.90;;;23.00;66.90;;;;;;5013937;28;20464;-65
2023/10/31 05:26:56;;;;;;;0.80;0.80;;;23.10;66.80;;;;;;5013445;28;20442;-65
2023/10/31 05:29:24;;;;;;;1.27;0.60;;;23.10;66.70;;;;;;5011397;28;20820;-64
2023/10/31 05:31:54;;;;;;;0.83;0.60;;;23.20;66.50;;;;;;5010948;28;20488;-65
2023/10/31 05:34:22;;;;;;;1.60;0.70;;;23.20;66.40;;;;;;5010052;28;20466;-67
2023/10/31 05:36:50;;;;;;;0.93;0.60;;;23.30;66.50;;;;;;5005328;28;20935;-65
2023/10/31 05:39:18;;;;;;;0.60;0.60;;;23.30;66.30;;;;;;5012748;28;20450;-66
2023/10/31 05:41:47;;;;;;;0.60;0.60;;;23.40;66.30;;;;;;5005898;28;20457;-64
2023/10/31 05:44:15;;;;;;;0.53;0.53;;;23.40;66.40;;;;;;5002485;28;20461;-64
2023/10/31 05:46:43;;;;;;;0.60;0.60;;;23.40;66.20;;;;;;5000868;28;20526;-65
2023/10/31 05:49:13;;;;;;;0.97;0.60;;;23.40;66.10;;;;;;5005505;28;20478;-64
2023/10/31 05:51:41;;;;;;;0.57;0.57;;;23.40;65.90;;;;;;5010621;28;20457;-66
2023/10/31 05:54:09;;;;;;;0.60;0.60;;;23.40;66.20;;;;;;5013645;28;20466;-67
2023/10/31 05:56:38;;;;;;;0.50;0.50;;;23.40;66.00;;;;;;5011085;28;20508;-64
2023/10/31 05:59:06;;;;;;;0.50;0.50;;;23.40;66.10;;;;;;5008489;28;20465;-65
2023/10/31 06:01:35;;;;;;;0.50;0.50;;;23.30;66.10;;;;;;5005195;28;20461;-64
2023/10/31 06:04:03;;;;;;;0.43;0.43;;;23.30;66.10;;;;;;4998962;28;20459;-65
2023/10/31 06:06:37;;;;;;;0.70;0.60;;;23.30;66.20;;;;;;5010129;28;20453;-66
2023/10/31 06:09:06;;;;;;;0.50;0.50;;;23.30;66.20;;;;;;5011797;28;20461;-64
2023/10/31 06:11:34;;;;;;;0.53;0.53;;;23.20;66.30;;;;;;5011024;28;20977;-65
2023/10/31 06:14:02;;;;;;;0.60;0.60;;;23.20;66.30;;;;;;5015008;28;20459;-66
2023/10/31 06:16:30;;;;;;;0.40;0.40;;;23.20;66.30;;;;;;5032023;28;20435;-65
2023/10/31 06:18:59;;;;;;;0.57;0.57;;;23.10;66.50;;;;;;5010954;28;20445;-65
2023/10/31 06:21:27;;;;;;;0.47;0.47;;;23.10;66.40;;;;;;5010568;28;20473;-65
2023/10/31 06:23:57;;;;;;;0.50;0.50;;;23.10;66.50;;;;;;5016424;28;20451;-65
2023/10/31 06:26:25;;;;;;;0.47;0.47;;;23.10;66.60;;;;;;5012530;28;20449;-64
2023/10/31 06:28:53;;;;;;;0.40;0.40;;;23.10;66.70;;;;;;5012595;28;20467;-65
2023/10/31 06:31:42;;;;;;;0.50;0.50;;;23.00;66.40;;;;;;5009590;28;20571;-65
2023/10/31 06:34:10;;;;;;;0.57;0.40;;;23.00;66.80;;;;;;5017395;28;20463;-64
2023/10/31 06:36:38;;;;;;;0.90;0.90;;;23.00;66.80;;;;;;5027822;28;20908;-65
2023/10/31 06:39:09;;;;;;;0.47;0.47;;;23.00;66.50;;;;;;5012444;28;20907;-65
2023/10/31 06:41:37;;;;;;;1.07;1.00;;;23.00;66.70;;;;;;5012021;28;20426;-65
2023/10/31 06:44:06;;;;;;;3.27;1.17;;;23.00;66.60;;;;;;5017015;28;20460;-65
2023/10/31 06:46:34;;;;;;;0.60;0.57;;;22.90;66.80;;;;;;5000531;28;20948;-65
2023/10/31 06:49:02;;;;;;;0.90;0.90;;;22.90;66.90;;;;;;5008438;28;20580;-66
2023/10/31 06:51:31;;;;;;;0.60;0.60;;;22.90;66.90;;;;;;5012611;28;20445;-64
2023/10/31 06:53:59;;;;;;;0.47;0.47;;;22.90;67.00;;;;;;5010578;28;20572;-65
2023/10/31 06:56:29;;;;;;;0.50;0.50;;;22.90;67.00;;;;;;5008863;28;20661;-64
2023/10/31 06:58:57;;;;;;;0.40;0.30;;;22.90;67.00;;;;;;5011873;28;20433;-65
2023/10/31 07:01:26;;;;;;;0.47;0.47;;;22.90;67.10;;;;;;5010259;28;20524;-67
2023/10/31 07:03:55;;;;;;;0.40;0.40;;;23.00;67.10;;;;;;5002417;28;20516;-65
2023/10/31 07:06:23;;;;;;;0.60;0.60;;;23.00;67.00;;;;;;5008240;28;20973;-65
2023/10/31 07:08:51;;;;;;;0.90;0.87;;;23.00;66.90;;;;;;5000359;28;20473;-65
2023/10/31 07:11:19;;;;;;;0.80;0.80;;;23.00;66.90;;;;;;5006213;28;20453;-65
2023/10/31 07:13:49;;;;;;;0.60;0.40;;;23.10;66.80;;;;;;4999714;28;20461;-65
2023/10/31 07:16:17;;;;;;;0.67;0.60;;;23.10;66.70;;;;;;5005297;28;20481;-65
2023/10/31 07:18:45;;;;;;;0.53;0.53;;;23.10;66.40;;;;;;5002887;28;20538;-64
2023/10/31 07:21:14;;;;;;;0.60;0.60;;;23.10;66.40;;;;;;5002627;28;20469;-65
2023/10/31 07:23:44;;;;;;;0.60;0.60;;;23.10;66.60;;;;;;5006209;28;20476;-66
2023/10/31 07:26:12;;;;;;;0.70;0.70;;;23.10;66.60;;;;;;5005732;28;20461;-66
2023/10/31 07:28:40;;;;;;;0.63;0.63;;;23.10;66.60;;;;;;5005451;28;20537;-64
2023/10/31 07:31:10;;;;;;;0.60;0.60;;;23.10;66.60;;;;;;5000775;28;20862;-66
2023/10/31 07:33:38;;;;;;;0.50;0.50;;;23.10;66.30;;;;;;5000612;28;20960;-64
2023/10/31 07:36:07;;;;;;;0.77;0.77;;;23.10;66.20;;;;;;5000235;28;20477;-65
2023/10/31 07:38:35;;;;;;;0.50;0.50;;;23.10;66.50;;;;;;5001603;28;20511;-65
2023/10/31 07:41:04;;;;;;;0.60;0.50;;;23.10;66.50;;;;;;5005070;28;20448;-66
2023/10/31 07:43:32;;;;;;;0.60;0.60;;;23.10;66.30;;;;;;4999317;28;20496;-65
2023/10/31 07:46:05;;;;;;;0.67;0.60;;;23.10;66.60;;;;;;5030005;28;20431;-65
2023/10/31 07:48:34;;;;;;;0.63;0.63;;;23.10;66.50;;;;;;5013553;28;20963;-66
2023/10/31 07:51:03;;;;;;;0.57;0.57;;;23.10;66.60;;;;;;5001576;28;20467;-65
2023/10/31 07:53:31;;;;;;;0.50;0.50;;;23.10;66.60;;;;;;5003808;28;20471;-66
2023/10/31 07:55:59;;;;;;;0.53;0.53;;;23.10;66.50;;;;;;4995927;28;20445;-65
2023/10/31 07:58:28;;;;;;;0.50;0.50;;;23.10;66.60;;;;;;5006178;28;20460;-65
2023/10/31 08:00:56;;;;;;;0.40;0.40;;;23.10;66.60;;;;;;5003692;28;20500;-65
2023/10/31 08:03:25;;;;;;;0.60;0.60;;;23.10;66.60;;;;;;5002515;28;20468;-65
2023/10/31 08:05:55;;;;;;;0.60;0.60;;;23.10;66.60;;;;;;4997143;28;20513;-67
2023/10/31 08:08:23;;;;;;;0.50;0.50;;;23.10;66.60;;;;;;5001471;28;20822;-66
2023/10/31 08:10:51;;;;;;;0.80;0.67;;;23.10;66.60;;;;;;5004935;28;20569;-65
2023/10/31 08:13:19;;;;;;;0.50;0.50;;;23.10;66.60;;;;;;5000659;28;20857;-65
2023/10/31 08:15:48;;;;;;;0.50;0.50;;;23.10;66.70;;;;;;5007808;28;20462;-67
2023/10/31 08:18:16;;;;;;;0.77;0.77;;;23.10;66.60;;;;;;5004713;28;20804;-66
2023/10/31 08:20:46;;;;;;;0.57;0.57;;;23.10;66.60;;;;;;5007559;28;20449;-66
2023/10/31 08:23:15;;;;;;;0.40;0.40;;;23.10;66.50;;;;;;5007065;28;20476;-66
2023/10/31 08:25:44;;;;;;;0.40;0.40;;;23.10;66.50;;;;;;5012328;28;20457;-66
2023/10/31 08:28:13;;;;;;;0.60;0.60;;;23.10;66.70;;;;;;5010451;28;20550;-66
2023/10/31 08:30:41;;;;;;;0.70;0.53;;;23.10;66.70;;;;;;5006944;28;20468;-67
2023/10/31 08:33:10;;;;;;;0.40;0.40;;;23.10;66.50;;;;;;5003755;28;20487;-66
2023/10/31 08:35:39;;;;;;;0.60;0.60;;;23.10;66.60;;;;;;4993380;28;20533;-66
2023/10/31 08:38:07;;;;;;;0.40;0.40;;;23.10;66.70;;;;;;5002095;28;20846;-66
2023/10/31 08:40:48;;;;;;;0.50;0.50;;;23.10;66.60;;;;;;5005881;28;20940;-66
2023/10/31 08:43:16;;;;;;;0.50;0.50;;;23.10;66.50;;;;;;5001328;28;20469;-66
2023/10/31 08:45:45;;;;;;;0.50;0.50;;;23.10;66.60;;;;;;5005855;28;20464;-66
2023/10/31 08:48:15;;;;;;;0.50;0.50;;;23.10;66.50;;;;;;4992471;28;20449;-66
2023/10/31 08:50:44;;;;;;;0.90;0.60;;;23.10;66.60;;;;;;5000685;28;20517;-66
2023/10/31 08:53:13;;;;;;;0.40;0.40;;;23.10;66.40;;;;;;5010174;28;20463;-66
2023/10/31 08:55:43;;;;;;;0.67;0.67;;;23.10;66.50;;;;;;5025078;28;20460;-66
2023/10/31 08:58:13;;;;;;;0.50;0.50;;;23.10;66.40;;;;;;5009207;28;20527;-66
2023/10/31 09:00:42;;;;;;;0.40;0.40;;;23.10;66.40;;;;;;5013117;28;21110;-65
2023/10/31 09:03:10;;;;;;;0.40;0.40;;;23.20;66.30;;;;;;5011260;28;20468;-66
2023/10/31 09:05:39;;;;;;;0.80;0.80;;;23.20;66.30;;;;;;5014462;28;20491;-67
2023/10/31 09:08:07;;;;;;;0.73;0.73;;;23.20;66.30;;;;;;5006303;28;20468;-66
2023/10/31 09:10:38;;;;;;;0.50;0.50;;;23.20;66.30;;;;;;5009415;28;20913;-66
2023/10/31 09:13:06;;;;;;;0.70;0.50;;;23.20;66.20;;;;;;5012971;28;20459;-66
2023/10/31 09:15:37;;;;;;;0.50;0.50;;;23.20;66.30;;;;;;5006082;28;20459;-67
2023/10/31 09:18:06;;;;;;;0.50;0.50;;;23.20;66.30;;;;;;5000029;28;20444;-67
2023/10/31 09:20:35;;;;;;;0.70;0.70;;;23.20;66.20;;;;;;5001295;28;20544;-66
2023/10/31 09:23:04;;;;;;;0.40;0.40;;;23.30;66.20;;;;;;5003543;28;20904;-66
2023/10/31 09:25:33;;;;;;;0.47;0.47;;;23.30;66.00;;;;;;5010260;28;20460;-66
2023/10/31 09:28:01;;;;;;;0.40;0.40;;;23.30;66.10;;;;;;5004951;28;20557;-66
2023/10/31 09:30:30;;;;;;;0.60;0.40;;;23.30;66.10;;;;;;5000914;28;20484;-66
2023/10/31 09:32:59;;;;;;;0.60;0.53;;;23.30;66.10;;;;;;5003536;28;20990;-66
2023/10/31 09:35:28;;;;;;;0.57;0.57;;;23.30;66.10;;;;;;5012275;28;20457;-66
2023/10/31 09:37:57;;;;;;;0.40;0.40;;;23.30;66.10;;;;;;5003603;28;20485;-66
2023/10/31 09:40:26;;;;;;;0.40;0.40;;;23.30;65.90;;;;;;5010089;28;20459;-66
2023/10/31 09:42:54;;;;;;;0.40;0.40;;;23.30;66.10;;;;;;5013090;28;20527;-66
2023/10/31 09:45:22;;;;;;;0.60;0.60;;;23.30;66.00;;;;;;5023933;28;20463;-65
2023/10/31 09:47:51;;;;;;;0.73;0.73;;;23.30;66.00;;;;;;5032271;28;20445;-64
2023/10/31 09:50:20;;;;;;;0.60;0.60;;;23.30;66.00;;;;;;5020094;28;20467;-65
2023/10/31 09:52:49;;;;;;;0.50;0.50;;;23.30;66.00;;;;;;5001313;28;20456;-65
2023/10/31 09:55:17;;;;;;;0.70;0.40;;;23.30;66.10;;;;;;5004256;28;20465;-64
2023/10/31 09:57:46;;;;;;;0.40;0.40;;;23.30;66.00;;;;;;5011323;28;20465;-65
2023/10/31 10:00:15;;;;;;;2.30;0.47;;;23.30;65.90;;;;;;5008950;28;20450;-66
2023/10/31 10:02:43;;;;;;;0.80;0.70;;;23.30;66.00;;;;;;4999661;28;20439;-65
2023/10/31 10:05:15;;;;;;;0.70;0.60;;;23.30;65.80;;;;;;5011821;28;21172;-65
2023/10/31 10:07:46;;;;;;;1.07;0.40;;;23.30;65.90;;;;;;5009018;28;20466;-65
2023/10/31 10:10:14;;;;;;;0.40;0.40;;;23.30;66.00;;;;;;5001145;28;20513;-66
2023/10/31 10:12:43;;;;;;;0.80;0.53;;;23.30;65.90;;;;;;5007035;28;20445;-65
2023/10/31 10:15:13;;;;;;;0.60;0.60;;;23.40;65.80;;;;;;5012422;28;20451;-66
2023/10/31 10:17:50;;;;;;;0.50;0.50;;;23.40;66.00;;;;;;5005535;28;20945;-64
2023/10/31 10:20:18;;;;;;;0.60;0.60;;;23.40;65.90;;;;;;5003385;28;20545;-66
2023/10/31 10:22:48;;;;;;;0.50;0.50;;;23.50;65.70;;;;;;5002311;28;20994;-65
2023/10/31 10:25:18;;;;;;;0.73;0.73;;;23.60;65.60;;;;;;5005854;28;20486;-66
2023/10/31 10:27:47;;;;;;;0.60;0.60;;;23.60;65.40;;;;;;4999280;28;20514;-65
2023/10/31 10:30:16;;;;;;;0.50;0.50;;;23.70;65.40;;;;;;5000920;28;21384;-65
2023/10/31 10:32:44;;;;;;;0.50;0.50;;;23.80;65.20;;;;;;5001465;28;20471;-65
2023/10/31 10:35:12;;;;;;;0.57;0.57;;;23.80;65.10;;;;;;5007941;28;20483;-65
2023/10/31 10:37:41;;;;;;;0.60;0.60;;;23.90;64.90;;;;;;5005434;28;20540;-65
2023/10/31 10:40:12;;;;;;;0.50;0.50;;;24.00;64.90;;;;;;5010076;28;20514;-64
2023/10/31 10:42:46;;;;;;;0.50;0.50;;;24.00;64.60;;;;;;5007474;28;20457;-65
2023/10/31 10:45:17;;;;;;;0.50;0.50;;;24.10;64.50;;;;;;5016380;28;20460;-66
2023/10/31 10:47:48;;;;;;;0.60;0.57;;;24.20;64.40;;;;;;5010880;28;20443;-65
2023/10/31 10:50:20;;;;;;;0.77;0.53;;;24.20;64.20;;;;;;5012462;28;20522;-64
2023/10/31 10:52:53;;;;;;;0.43;0.43;;;24.20;64.20;;;;;;5012364;28;20863;-65
2023/10/31 10:55:27;;;;;;;0.50;0.50;;;24.10;64.10;;;;;;5006109;28;20523;-65
2023/10/31 10:58:05;;;;;;;0.50;0.50;;;24.00;64.20;;;;;;5012227;28;20491;-66
2023/10/31 11:00:34;;;;;;;0.70;0.70;;;23.90;64.50;;;;;;5008420;28;20463;-65
2023/10/31 11:03:05;;;;;;;0.57;0.57;;;23.90;64.60;;;;;;5009936;28;21028;-65
2023/10/31 11:05:36;;;;;;;0.60;0.60;;;23.80;64.50;;;;;;5012365;28;20462;-66
2023/10/31 11:08:06;;;;;;;0.57;0.57;;;23.80;64.70;;;;;;5007591;28;20454;-67
2023/10/31 11:10:36;;;;;;;0.40;0.40;;;23.70;64.70;;;;;;5006883;28;20467;-66
2023/10/31 11:13:05;;;;;;;0.60;0.60;;;23.60;64.80;;;;;;5009007;28;20514;-66
2023/10/31 11:15:34;;;;;;;1.07;0.50;;;23.60;64.80;;;;;;5012789;28;20464;-65
2023/10/31 11:18:03;;;;;;;0.73;0.73;;;23.60;65.20;;;;;;5003197;28;21011;-65
2023/10/31 11:20:34;;;;;;;0.40;0.40;;;23.50;64.90;;;;;;5004697;28;20476;-66
2023/10/31 11:23:06;;;;;;;0.50;0.50;;;23.50;65.30;;;;;;5003402;28;20550;-66
2023/10/31 11:25:45;;;;;;;0.50;0.50;;;23.50;65.50;;;;;;5002285;28;20465;-66
2023/10/31 11:28:17;;;;;;;0.70;0.70;;;23.40;65.30;;;;;;5000444;28;20459;-65
2023/10/31 11:30:49;;;;;;;0.80;0.50;;;23.40;65.30;;;;;;5006180;28;20885;-65
2023/10/31 11:33:21;;;;;;;0.90;0.60;;;23.40;65.50;;;;;;5005426;28;20541;-65
2023/10/31 11:35:51;;;;;;;0.67;0.40;;;23.40;65.50;;;;;;5008750;28;20478;-65
2023/10/31 11:38:33;;;;;;;0.50;0.50;;;23.30;65.60;;;;;;5009665;28;20457;-66
2023/10/31 11:41:04;;;;;;;0.50;0.50;;;23.30;65.80;;;;;;5005638;28;20819;-65
2023/10/31 11:43:52;;;;;;;0.50;0.47;;;23.30;65.60;;;;;;5004463;28;20478;-66
2023/10/31 11:46:22;;;;;;;0.60;0.60;;;23.30;65.60;;;;;;5007050;28;20464;-67
2023/10/31 11:48:52;;;;;;;0.57;0.57;;;23.30;65.70;;;;;;5004800;28;20455;-66
2023/10/31 11:51:21;;;;;;;1.00;0.80;;;23.30;65.70;;;;;;5004167;28;20630;-65
2023/10/31 11:53:50;;;;;;;0.40;0.40;;;23.40;65.80;;;;;;5001470;28;20566;-67
2023/10/31 11:56:23;;;;;;;0.40;0.40;;;23.40;65.80;;;;;;5008482;28;21262;-66
2023/10/31 11:58:59;;;;;;;0.53;0.47;;;23.40;65.90;;;;;;5006252;28;20495;-66
2023/10/31 12:01:28;;;;;;;0.80;0.60;;;23.50;65.70;;;;;;5005370;28;20510;-65
2023/10/31 12:03:56;;;;;;;0.50;0.50;;;23.40;65.50;;;;;;5009131;28;21723;-68
2023/10/31 12:06:25;;;;;;;0.47;0.47;;;23.50;65.60;;;;;;5006606;28;20461;-65
2023/10/31 12:08:53;;;;;;;0.57;0.50;;;23.50;65.60;;;;;;5002453;28;20457;-66
2023/10/31 12:11:24;;;;;;;0.80;0.67;;;23.50;65.40;;;;;;5000546;28;20477;-66
2023/10/31 12:13:55;;;;;;;0.80;0.50;;;23.50;65.40;;;;;;5001608;28;20470;-66
2023/10/31 12:16:25;;;;;;;1.17;0.60;;;23.50;65.50;;;;;;5004764;28;20471;-66
2023/10/31 12:18:58;;;;;;;0.67;0.50;;;23.50;65.40;;;;;;5002892;28;20465;-65
2023/10/31 12:21:37;;;;;;;0.50;0.50;;;23.50;65.60;;;;;;5003288;28;20947;-65
2023/10/31 12:24:07;;;;;;;0.60;0.60;;;23.50;65.40;;;;;;5002859;28;20471;-65
2023/10/31 12:26:37;;;;;;;0.40;0.40;;;23.50;65.40;;;;;;5004228;28;20462;-65
2023/10/31 12:29:13;;;;;;;0.90;0.50;;;23.60;65.50;;;;;;5007963;28;20457;-66
2023/10/31 12:31:45;;;;;;;0.50;0.50;;;23.70;65.20;;;;;;5010946;28;20583;-65
2023/10/31 12:34:14;;;;;;;0.40;0.40;;;23.70;65.00;;;;;;5011636;28;20454;-67
2023/10/31 12:36:43;;;;;;;0.50;0.50;;;23.70;64.90;;;;;;5008826;28;20494;-67
2023/10/31 12:39:13;;;;;;;0.47;0.47;;;23.80;64.90;;;;;;5006449;28;20492;-66
2023/10/31 12:41:43;;;;;;;0.63;0.63;;;23.80;64.60;;;;;;5004800;28;20449;-66
2023/10/31 12:44:14;;;;;;;0.50;0.50;;;23.80;64.60;;;;;;5006485;28;20466;-66
2023/10/31 12:46:42;;;;;;;0.50;0.50;;;23.80;64.80;;;;;;5015166;28;20547;-66
2023/10/31 12:49:17;;;;;;;0.60;0.47;;;23.80;64.60;;;;;;5013770;28;21021;-66
2023/10/31 12:52:00;;;;;;;0.50;0.50;;;23.80;64.70;;;;;;5009586;28;20922;-68
2023/10/31 12:54:32;;;;;;;0.50;0.50;;;23.70;64.90;;;;;;5008432;28;20465;-67
2023/10/31 12:57:04;;;;;;;0.40;0.40;;;23.70;65.10;;;;;;5009956;28;20486;-67
2023/10/31 12:59:32;;;;;;;0.80;0.80;;;23.60;65.10;;;;;;5009142;28;20544;-68